Reno, NV (89501)

7:30 AM PDT on August 27, 2014 (GMT -0700)
UNR Campus, LMR Roof | Change Station
CLOSE
Current Station
Personal Weather Station
Location: Reno, NV
Elevation: 4570 ft
Nearby Weather Stations

Elev 4570 ft 39.54 °N, 119.81 °W | Updated 45 seconds ago

Clear
Clear
57.2 °F
Feels Like 57.2 °F
N
0.9
Wind Variable Wind from WSW
Gusts 0.0 mph

Today
High -- | Low -- °F
--% Chance of Precip.
Yesterday
High -- | Low -- °F
Precip. -- in
6:22 AM 7:37 PM
Waxing Crescent, 4% visible
Pressure 30.11 in
Visibility 10.0 miles
Clouds Clear
Dew Point 39 °F
Humidity 50%
Rainfall 0.00 in
Snow Depth 0 in
UV 0 out of 12
Pollen 8.10 out of 12
Air Quality Not available.
Flu Activity Not available.
METAR KRNO 271355Z 00000KT 10SM CLR 13/04 A3024 RMK AO2 SLP196 T01330039

More Conditions Fewer Conditions

Pressure 30.11 in
Visibility 10.0 miles
Clouds Clear
Dew Point 39 °F
Humidity 50%
Rainfall 0.00 in
Snow Depth 0 in
UV 0 out of 12
Pollen 8.10 out of 12
Air Quality Not available.
Flu Activity Not available.
METAR KRNO 271355Z 00000KT 10SM CLR 13/04 A3024 RMK AO2 SLP196 T01330039

More Conditions Fewer Conditions

10-Day Weather Forecast

Almanac

Astronomy

Aug. 27, 2014 Rise Set
Actual Time 6:22 AM PDT 7:37 PM PDT
Civil Twilight 5:55 AM PDT 8:05 PM PDT
Nautical Twilight 5:21 AM PDT 8:38 PM PDT
Astronomical Twilight 4:46 AM PDT 9:13 PM PDT
Moon 8:23 AM PDT 8:33 PM PDT
Length of Visible Light 14h 10m
Length of Day
13h 14m
Tomorrow will be 2m 27s shorter.
Waxing Crescent, 4% of the Moon is Illuminated
Today
Waxing Crescent
Sep 2
First Quarter
Sep 8
Full
Sep 15
Last Quarter
Sep 24
New

Today's Extremes

State Highs State Lows

Community

WunderPhotos

Upload Photos

1,747,695 photos uploaded!

Nearby

Snow Depth

Station Depth Elevation
Mt. Rose Ski Area 0 in 8850 ft
Marlette Lake 0 in 8000 ft
Big Creek Summit 1 in 8700 ft
Lewis Peak 0 in 7400 ft
Lamance Creek 1 in 6000 ft

Earthquake Activity

City Distance Mag. Time & Date
No recent earthquake activity has been reported nearby.
Minimum magnitude displayed is 2.5.

Coastal Water Temperatures

Place Temperature
No Stations Reporting

Nearby Weather Stations